»·PEaware :: N101JP KNTD-KSLI

N101JP :: KNTD-KSLI

FLIGHT INFORMATION

Flight Status: Arrived
Operator: Privately registered:
United States
More flights under this callsign
Pilot: James T. (870)
Aircraft: PILATUS PC-12 EAGLE
(PC12)
More flights by this aircraft type
Origin: KNTD Point Mugu NAS
United States
Destination: KSLI Los Alamitos AAF
United States
More flights between these airports :: More routes between these airports
Route: +VTU V208 SXC SLI
File this flight plan on PilotEdge
Remarks:
Altitude:
(Current/Filed)
70ft
Speed:
(Current/Filed)
200kts
Departed: 10-Mar-15 02:33 PM
Arrived: 10-Mar-15 03:20 PM
Distance/Time
Traveled:
57nm/0:47
Distance/Time
To Go:
Arrived

Flight Plot

Page will automatically refresh every two minutes.

Flight plan parsing failed; only flown route is shown


Map Options




Map Legend


Flown Route
Filed Route
Departure Airport
Arrival Airport
Navaid (VOR, NDB)
Fix

Horizontal Profiles

Position Reports

Time Latitude Longitude Heading Altitude Ground
Speed
10-Mar-15 14:15 34.115999 -119.105630 92 19ft 0kts
10-Mar-15 14:16 34.115999 -119.105630 92 19ft 0kts
10-Mar-15 14:17 34.115999 -119.105630 92 19ft 0kts
10-Mar-15 14:17 34.115999 -119.105630 92 19ft 0kts
10-Mar-15 14:19 34.115999 -119.105630 92 19ft 0kts
10-Mar-15 14:19 34.115999 -119.105630 92 19ft 0kts
10-Mar-15 14:20 34.115999 -119.105630 92 19ft 0kts
10-Mar-15 14:21 34.115999 -119.105630 92 19ft 0kts
10-Mar-15 14:22 34.115999 -119.105630 92 19ft 0kts
10-Mar-15 14:23 34.115999 -119.105630 92 19ft 0kts
10-Mar-15 14:24 34.115995 -119.105579 98 19ft 1kts
10-Mar-15 14:25 34.116004 -119.103907 63 19ft 6kts
10-Mar-15 14:26 34.118671 -119.109628 284 19ft 99kts
10-Mar-15 14:27 34.129514 -119.155213 283 1464ft 168kts
10-Mar-15 14:28 34.117824 -119.195216 165 3256ft 161kts
10-Mar-15 14:29 34.081990 -119.163149 144 5048ft 163kts
10-Mar-15 14:30 34.046562 -119.129986 144 6822ft 161kts
10-Mar-15 14:31 34.006891 -119.092930 144 7007ft 199kts
10-Mar-15 14:32 33.961439 -119.051030 144 7001ft 210kts
10-Mar-15 14:33 33.907654 -119.029832 173 7000ft 210kts
10-Mar-15 14:34 33.849546 -119.023030 174 7000ft 210kts
10-Mar-15 14:35 33.791406 -119.014880 157 6977ft 213kts
10-Mar-15 14:36 33.752101 -118.960630 132 7002ft 217kts
10-Mar-15 14:37 33.713173 -118.904552 131 7009ft 217kts
10-Mar-15 14:38 33.675956 -118.850336 129 6996ft 222kts
10-Mar-15 14:39 33.636785 -118.793594 129 7012ft 225kts
10-Mar-15 14:40 33.597214 -118.736618 129 7019ft 224kts
10-Mar-15 14:41 33.565249 -118.675699 79 7012ft 224kts
10-Mar-15 14:42 33.582623 -118.605357 73 7020ft 224kts
10-Mar-15 14:43 33.599084 -118.535959 74 7016ft 225kts
10-Mar-15 14:44 33.614810 -118.465405 73 6992ft 227kts
10-Mar-15 14:45 33.629948 -118.393055 74 7030ft 230kts
10-Mar-15 14:46 33.645887 -118.318032 73 7013ft 236kts
10-Mar-15 14:47 33.661195 -118.245701 73 7022ft 234kts
10-Mar-15 14:48 33.684663 -118.176103 53 7005ft 225kts
10-Mar-15 14:49 33.721194 -118.117248 52 6998ft 214kts
10-Mar-15 14:50 33.756824 -118.061488 51 7000ft 216kts
10-Mar-15 14:51 33.793533 -118.004270 51 6318ft 226kts
10-Mar-15 14:52 33.831202 -117.945552 51 5163ft 230kts
10-Mar-15 14:53 33.865662 -117.891838 52 4996ft 214kts
10-Mar-15 14:54 33.901062 -117.836614 52 4999ft 208kts
10-Mar-15 14:56 33.935426 -117.782423 52 4996ft 206kts
10-Mar-15 14:57 33.968795 -117.728444 52 5001ft 201kts
10-Mar-15 14:58 34.000030 -117.676612 52 5006ft 193kts
10-Mar-15 14:59 34.029751 -117.626801 52 5008ft 189kts
10-Mar-15 15:00 34.061880 -117.581037 14 4877ft 184kts
10-Mar-15 15:01 34.082636 -117.625062 268 3760ft 193kts
10-Mar-15 15:02 34.081274 -117.690806 268 3011ft 189kts
10-Mar-15 15:03 34.079427 -117.750109 268 3011ft 173kts
10-Mar-15 15:04 34.061520 -117.794015 197 3020ft 166kts
10-Mar-15 15:05 34.020246 -117.812306 200 3012ft 164kts
10-Mar-15 15:06 33.977987 -117.830884 200 3007ft 164kts
10-Mar-15 15:07 33.935448 -117.849529 200 3002ft 163kts
10-Mar-15 15:08 33.898828 -117.865807 206 2947ft 131kts
10-Mar-15 15:09 33.874508 -117.904737 234 1786ft 153kts
10-Mar-15 15:10 33.852321 -117.942599 235 1489ft 124kts
10-Mar-15 15:11 33.834145 -117.973833 235 1316ft 116kts
10-Mar-15 15:12 33.815395 -118.006072 235 715ft 114kts
10-Mar-15 15:13 33.798641 -118.034772 235 146ft 95kts
10-Mar-15 15:14 33.789448 -118.047205 183 41ft 16kts

Navigation Log

Ident Type
Flight plan parsing failed, navigation log unavailable